createdAt,value
2023-01-31T00:03:05.723Z,82.10
2023-01-31T00:06:16.461Z,82.10
2023-01-31T00:09:22.528Z,82.10
2023-01-31T00:12:28.249Z,82.00
2023-01-31T00:15:34.075Z,82.10
2023-01-31T00:18:39.365Z,82.10
2023-01-31T00:21:46.281Z,82.10
2023-01-31T00:24:50.131Z,82.10
2023-01-31T00:27:57.905Z,82.10
2023-01-31T00:31:01.765Z,82.10
2023-01-31T00:34:07.923Z,82.10
2023-01-31T00:37:11.727Z,82.10
2023-01-31T00:40:17.924Z,82.10
2023-01-31T00:43:24.713Z,82.10
2023-01-31T00:46:30.899Z,82.00
2023-01-31T00:49:35.448Z,82.10
2023-01-31T00:52:41.857Z,82.10
2023-01-31T00:55:45.414Z,82.10
2023-01-31T00:58:55.053Z,82.00
2023-01-31T01:01:58.956Z,82.00
2023-01-31T01:05:04.914Z,82.00
2023-01-31T01:08:10.048Z,82.10
2023-01-31T01:11:17.740Z,82.00
2023-01-31T01:14:23.481Z,82.10
2023-01-31T01:17:29.327Z,82.10
2023-01-31T01:20:33.308Z,82.10
2023-01-31T01:23:39.603Z,82.00
2023-01-31T01:26:43.979Z,81.90
2023-01-31T01:29:51.730Z,82.00
2023-01-31T01:32:56.713Z,82.10
2023-01-31T01:36:02.944Z,82.00
2023-01-31T01:39:08.463Z,82.10
2023-01-31T01:42:19.611Z,82.00
2023-01-31T01:45:26.037Z,82.00
2023-01-31T01:48:32.491Z,82.00
2023-01-31T01:51:36.491Z,82.10
2023-01-31T01:54:48.307Z,82.00
2023-01-31T01:57:55.546Z,82.10
2023-01-31T02:01:07.126Z,82.10
2023-01-31T02:04:16.763Z,82.20
2023-01-31T02:07:22.700Z,82.10
2023-01-31T02:10:31.141Z,82.20
2023-01-31T02:13:38.255Z,82.20
2023-01-31T02:16:44.644Z,82.20
2023-01-31T02:20:12.305Z,82.20
2023-01-31T02:23:38.589Z,82.20
2023-01-31T02:27:16.642Z,82.20
2023-01-31T02:31:01.152Z,82.20
2023-01-31T02:34:17.159Z,82.30
2023-01-31T02:37:30.787Z,82.20
2023-01-31T02:40:43.482Z,82.30
2023-01-31T02:44:08.331Z,82.30
2023-01-31T02:47:26.645Z,82.30
2023-01-31T02:50:37.516Z,82.30
2023-01-31T02:53:49.742Z,82.30
2023-01-31T02:56:53.053Z,82.40
2023-01-31T02:59:59.550Z,82.40
2023-01-31T03:03:06.873Z,82.40
2023-01-31T03:06:42.633Z,82.40
2023-01-31T03:09:59.148Z,82.50
2023-01-31T03:13:20.472Z,82.40
2023-01-31T03:16:42.705Z,82.40
2023-01-31T03:19:56.159Z,82.40
2023-01-31T03:23:03.125Z,82.50
2023-01-31T03:26:12.445Z,82.50
2023-01-31T03:29:18.000Z,82.50
2023-01-31T03:32:28.275Z,82.50
2023-01-31T03:35:35.473Z,82.70
2023-01-31T03:38:51.039Z,82.60
2023-01-31T03:42:06.856Z,82.70
2023-01-31T03:45:17.100Z,82.60
2023-01-31T03:48:24.063Z,82.70
2023-01-31T03:51:34.358Z,82.70
2023-01-31T03:54:43.052Z,82.80
2023-01-31T03:57:56.375Z,82.80
2023-01-31T04:01:02.584Z,82.90
2023-01-31T04:04:12.387Z,82.90
2023-01-31T04:07:17.369Z,82.90
2023-01-31T04:10:23.714Z,82.90
2023-01-31T04:13:29.512Z,83.00
2023-01-31T04:16:35.534Z,83.10
2023-01-31T04:19:39.395Z,83.10
2023-01-31T04:22:45.336Z,83.00
2023-01-31T04:25:49.197Z,83.20
2023-01-31T04:28:57.040Z,83.20
2023-01-31T04:32:01.005Z,83.20
2023-01-31T04:35:07.685Z,83.30
2023-01-31T04:38:11.584Z,83.30
2023-01-31T04:41:17.415Z,83.30
2023-01-31T04:44:22.924Z,83.30
2023-01-31T04:47:28.860Z,83.30
2023-01-31T04:50:33.025Z,83.20
2023-01-31T04:53:39.126Z,83.30
2023-01-31T04:56:42.970Z,83.30
2023-01-31T04:59:51.662Z,83.40
2023-01-31T05:02:55.959Z,83.40
2023-01-31T05:06:01.831Z,83.50
2023-01-31T05:09:06.519Z,84.10
2023-01-31T05:12:12.563Z,83.50
2023-01-31T05:15:18.405Z,83.40
2023-01-31T05:18:24.421Z,83.40
2023-01-31T05:21:28.132Z,83.40
2023-01-31T05:24:36.116Z,83.40
2023-01-31T05:27:40.000Z,83.40
2023-01-31T05:30:48.032Z,83.40
2023-01-31T05:33:52.927Z,83.60
2023-01-31T05:36:59.080Z,83.60
2023-01-31T05:40:03.141Z,83.60
2023-01-31T05:43:09.209Z,83.60
2023-01-31T05:46:14.781Z,83.70
2023-01-31T05:49:20.707Z,83.60
2023-01-31T05:52:24.309Z,83.60
2023-01-31T05:55:31.180Z,83.50
2023-01-31T05:58:35.347Z,83.50
2023-01-31T06:01:43.234Z,83.60
2023-01-31T06:04:47.103Z,83.60
2023-01-31T06:07:52.912Z,83.70
2023-01-31T06:10:56.517Z,83.60
2023-01-31T06:14:02.340Z,83.70
2023-01-31T06:17:08.006Z,83.60
2023-01-31T06:20:14.058Z,83.70
2023-01-31T06:23:17.889Z,83.70
2023-01-31T06:26:23.822Z,83.70
2023-01-31T06:29:27.410Z,83.80
2023-01-31T06:32:35.712Z,83.80
2023-01-31T06:35:39.736Z,83.80
2023-01-31T06:38:45.605Z,83.80
2023-01-31T06:41:49.208Z,83.80
2023-01-31T06:44:55.085Z,83.90
2023-01-31T06:48:01.137Z,83.80
2023-01-31T06:51:07.502Z,83.90
2023-01-31T06:54:11.262Z,83.80
2023-01-31T06:57:17.119Z,83.90
2023-01-31T07:00:21.044Z,84.00
2023-01-31T07:03:28.785Z,84.00
2023-01-31T07:06:32.655Z,83.90
2023-01-31T07:09:38.508Z,83.90
2023-01-31T07:12:42.388Z,83.90
2023-01-31T07:15:48.248Z,84.00
2023-01-31T07:18:55.404Z,83.90
2023-01-31T07:22:01.248Z,84.00
2023-01-31T07:25:05.173Z,83.90
2023-01-31T07:28:12.684Z,84.00
2023-01-31T07:31:16.808Z,83.90
2023-01-31T07:34:24.751Z,84.00
2023-01-31T07:37:28.850Z,84.10
2023-01-31T07:40:34.676Z,84.10
2023-01-31T07:43:38.511Z,84.20
2023-01-31T07:46:44.371Z,84.20
2023-01-31T07:49:49.965Z,84.20
2023-01-31T07:52:55.972Z,84.20
2023-01-31T07:56:08.013Z,84.10
2023-01-31T07:59:13.934Z,84.20
2023-01-31T08:02:32.354Z,84.20
2023-01-31T08:05:40.103Z,84.10
2023-01-31T08:08:45.485Z,84.20
2023-01-31T08:11:51.358Z,84.30
2023-01-31T08:14:55.294Z,84.80
2023-01-31T08:18:01.609Z,84.30
2023-01-31T08:21:09.387Z,84.30
2023-01-31T08:24:15.448Z,84.30
2023-01-31T08:27:19.331Z,84.40
2023-01-31T08:30:25.326Z,84.40
2023-01-31T08:33:29.255Z,84.40
2023-01-31T08:36:37.373Z,84.50
2023-01-31T08:39:41.264Z,84.50
2023-01-31T08:42:55.407Z,84.60
2023-01-31T08:45:59.228Z,84.70
2023-01-31T08:49:08.096Z,84.60
2023-01-31T08:52:13.834Z,84.60
2023-01-31T08:55:19.912Z,84.60
2023-01-31T08:58:23.818Z,84.60
2023-01-31T09:01:30.363Z,84.70
2023-01-31T09:04:34.547Z,84.60
2023-01-31T09:07:42.317Z,84.70
2023-01-31T09:10:52.341Z,84.70
2023-01-31T09:13:58.503Z,84.70
2023-01-31T09:17:02.836Z,84.60
2023-01-31T09:20:10.295Z,84.70
2023-01-31T09:23:16.198Z,84.70
2023-01-31T09:26:24.436Z,84.70
2023-01-31T09:29:29.867Z,84.70
2023-01-31T09:32:36.327Z,84.70
2023-01-31T09:35:40.181Z,84.70
2023-01-31T09:38:48.218Z,84.80
2023-01-31T09:41:54.726Z,84.80
2023-01-31T09:45:03.741Z,84.80
2023-01-31T09:48:09.191Z,84.80
2023-01-31T09:51:16.026Z,84.80
2023-01-31T09:54:29.464Z,84.80
2023-01-31T09:57:45.030Z,84.90
2023-01-31T10:00:51.739Z,84.80
2023-01-31T10:04:16.915Z,84.80
2023-01-31T10:07:26.703Z,84.90
2023-01-31T10:10:38.474Z,84.90
2023-01-31T10:13:49.116Z,84.90
2023-01-31T10:17:03.232Z,84.90
2023-01-31T10:20:15.250Z,84.80
2023-01-31T10:23:27.980Z,84.90
2023-01-31T10:26:38.389Z,84.90
2023-01-31T10:29:50.983Z,84.90
2023-01-31T10:33:00.482Z,85.00
2023-01-31T10:36:12.759Z,84.90
2023-01-31T10:39:23.094Z,84.90
2023-01-31T10:42:33.712Z,84.80
2023-01-31T10:45:37.971Z,84.90
2023-01-31T10:48:47.736Z,84.80
2023-01-31T10:52:12.669Z,84.80
2023-01-31T10:55:36.081Z,84.80
2023-01-31T10:58:41.997Z,84.80
2023-01-31T11:01:47.859Z,84.70
2023-01-31T11:04:52.331Z,84.80
2023-01-31T11:07:59.214Z,84.80
2023-01-31T11:11:09.227Z,84.70
2023-01-31T11:14:20.318Z,84.80
2023-01-31T11:17:25.670Z,84.80
2023-01-31T11:20:33.819Z,84.80
2023-01-31T11:23:38.542Z,84.80
2023-01-31T11:26:54.865Z,85.40
2023-01-31T11:30:03.613Z,84.90
2023-01-31T11:33:30.613Z,84.90
2023-01-31T11:36:42.427Z,84.90
2023-01-31T11:39:57.352Z,84.90
2023-01-31T11:43:03.372Z,85.00
2023-01-31T11:46:11.575Z,84.90
2023-01-31T11:49:21.281Z,85.00
2023-01-31T11:52:32.213Z,85.00
2023-01-31T11:55:39.682Z,85.00
2023-01-31T11:58:47.382Z,85.10
2023-01-31T12:01:54.781Z,85.10
2023-01-31T12:05:02.050Z,85.10
2023-01-31T12:08:07.075Z,85.10
2023-01-31T12:11:29.469Z,85.20
2023-01-31T12:14:41.002Z,85.40
2023-01-31T12:17:50.987Z,85.30
2023-01-31T12:21:03.871Z,85.90
2023-01-31T12:24:16.080Z,85.30
2023-01-31T12:27:36.684Z,85.40
2023-01-31T12:31:08.541Z,85.40
2023-01-31T12:34:27.408Z,85.40
2023-01-31T12:37:44.605Z,85.50
2023-01-31T12:40:56.870Z,85.50
2023-01-31T12:44:17.413Z,85.60
2023-01-31T12:47:41.803Z,85.60
2023-01-31T12:50:53.921Z,85.70
2023-01-31T12:54:05.532Z,85.70
2023-01-31T12:57:24.824Z,85.70
2023-01-31T13:00:38.026Z,85.80
2023-01-31T13:03:58.351Z,85.80
2023-01-31T13:07:10.521Z,85.80
2023-01-31T13:10:26.709Z,85.90
2023-01-31T13:13:37.364Z,85.90
2023-01-31T13:16:46.909Z,85.80
2023-01-31T13:19:52.884Z,85.90
2023-01-31T13:23:05.363Z,86.00
2023-01-31T13:26:13.906Z,86.10
2023-01-31T13:29:24.444Z,86.10
2023-01-31T13:32:32.260Z,86.10
2023-01-31T13:35:42.659Z,86.20
2023-01-31T13:38:49.205Z,86.20
2023-01-31T13:41:55.276Z,86.20
2023-01-31T13:45:09.606Z,86.20
2023-01-31T13:48:26.836Z,86.30
2023-01-31T13:51:35.977Z,86.30
2023-01-31T13:54:48.370Z,86.30
2023-01-31T13:57:59.471Z,86.40
2023-01-31T14:01:08.590Z,86.40
2023-01-31T14:04:26.678Z,86.40
2023-01-31T14:07:32.598Z,86.40
2023-01-31T14:10:44.906Z,86.40
2023-01-31T14:13:51.723Z,86.40
2023-01-31T14:16:55.537Z,86.40
2023-01-31T14:20:09.129Z,86.20
2023-01-31T14:23:32.250Z,86.40
2023-01-31T14:26:53.724Z,86.40
2023-01-31T14:30:08.798Z,86.40
2023-01-31T14:33:29.684Z,86.30
2023-01-31T14:36:48.967Z,86.30
2023-01-31T14:40:19.442Z,86.40
2023-01-31T14:43:40.429Z,86.30
2023-01-31T14:47:15.636Z,86.30
2023-01-31T14:50:37.162Z,86.30
2023-01-31T14:54:12.475Z,86.20
2023-01-31T14:57:21.024Z,86.30
2023-01-31T15:00:32.317Z,86.20
2023-01-31T15:03:39.622Z,86.20
2023-01-31T15:06:49.690Z,86.20
2023-01-31T15:09:54.704Z,86.20
2023-01-31T15:13:01.891Z,86.20
2023-01-31T15:16:10.633Z,86.10
2023-01-31T15:19:19.608Z,86.10
2023-01-31T15:22:25.017Z,86.00
2023-01-31T15:25:35.083Z,86.00
2023-01-31T15:28:43.053Z,86.00
2023-01-31T15:31:54.943Z,85.90
2023-01-31T15:35:05.704Z,85.90
2023-01-31T15:38:23.760Z,85.80
2023-01-31T15:41:36.990Z,85.70
2023-01-31T15:44:42.853Z,85.70
2023-01-31T15:47:56.747Z,85.60
2023-01-31T15:51:02.557Z,85.60
2023-01-31T15:54:08.881Z,85.60
2023-01-31T15:57:17.788Z,85.50
2023-01-31T16:00:25.917Z,85.40
2023-01-31T16:03:36.348Z,85.40
2023-01-31T16:06:41.722Z,85.40
2023-01-31T16:09:48.392Z,85.30
2023-01-31T16:12:53.801Z,85.30
2023-01-31T16:15:59.835Z,85.20
2023-01-31T16:19:06.875Z,85.80
2023-01-31T16:22:26.378Z,85.10
2023-01-31T16:25:31.965Z,85.10
2023-01-31T16:28:44.478Z,85.10
2023-01-31T16:31:51.260Z,84.90
2023-01-31T16:35:02.287Z,84.90
2023-01-31T16:38:09.136Z,84.90
2023-01-31T16:41:15.454Z,84.90
2023-01-31T16:44:26.000Z,84.80
2023-01-31T16:47:50.226Z,84.80
2023-01-31T16:50:57.357Z,84.90
2023-01-31T16:54:21.336Z,84.80
2023-01-31T16:57:38.558Z,84.70
2023-01-31T17:00:45.048Z,84.70
2023-01-31T17:03:53.634Z,84.70
2023-01-31T17:07:07.829Z,84.70
2023-01-31T17:10:21.799Z,84.60
2023-01-31T17:13:28.246Z,84.60
2023-01-31T17:16:32.074Z,84.60
2023-01-31T17:19:37.887Z,84.60
2023-01-31T17:22:47.721Z,84.50
2023-01-31T17:25:59.073Z,84.60
2023-01-31T17:29:02.957Z,84.50
2023-01-31T17:32:10.289Z,84.50
2023-01-31T17:35:19.609Z,84.50
2023-01-31T17:38:28.709Z,84.40
2023-01-31T17:41:34.032Z,84.40
2023-01-31T17:44:39.913Z,84.30
2023-01-31T17:47:43.676Z,84.30
2023-01-31T17:50:51.157Z,84.20
2023-01-31T17:53:57.985Z,84.20
2023-01-31T17:57:03.868Z,84.20
2023-01-31T18:06:22.048Z,82.50
2023-01-31T18:09:29.939Z,83.00
2023-01-31T18:12:35.590Z,83.70
2023-01-31T18:15:42.313Z,83.80
2023-01-31T18:18:46.154Z,83.80
2023-01-31T18:21:55.218Z,83.90
2023-01-31T18:25:01.217Z,83.90
2023-01-31T18:28:07.036Z,83.90
2023-01-31T18:31:13.229Z,83.90
2023-01-31T18:34:19.204Z,83.80
2023-01-31T18:37:22.801Z,83.90
2023-01-31T18:40:30.521Z,83.80
2023-01-31T18:43:34.586Z,83.80
2023-01-31T18:46:40.425Z,83.90
2023-01-31T18:49:44.717Z,83.90
2023-01-31T18:52:50.566Z,83.80
2023-01-31T18:56:05.628Z,83.80
2023-01-31T18:59:11.712Z,83.80
2023-01-31T19:02:15.406Z,83.80
2023-01-31T19:05:22.992Z,83.80
2023-01-31T19:08:27.273Z,83.80
2023-01-31T19:11:35.275Z,83.80
2023-01-31T19:14:39.076Z,83.80
2023-01-31T19:17:44.953Z,83.80
2023-01-31T19:20:48.550Z,83.80
2023-01-31T19:23:57.140Z,83.80
2023-01-31T19:27:02.910Z,83.80
2023-01-31T19:30:10.822Z,83.70
2023-01-31T19:33:14.610Z,83.80
2023-01-31T19:36:22.670Z,83.80
2023-01-31T19:39:26.515Z,83.80
2023-01-31T19:42:36.186Z,83.70
2023-01-31T19:45:39.981Z,83.70
2023-01-31T19:48:45.918Z,83.70
2023-01-31T19:51:49.566Z,83.70
2023-01-31T19:54:55.388Z,83.70
2023-01-31T19:58:00.961Z,84.20
2023-01-31T20:01:08.755Z,83.60
2023-01-31T20:04:12.598Z,83.60
2023-01-31T20:07:18.449Z,83.50
2023-01-31T20:10:23.315Z,83.50
2023-01-31T20:13:31.725Z,83.50
2023-01-31T20:16:35.874Z,83.50
2023-01-31T20:19:41.980Z,83.50
2023-01-31T20:22:45.766Z,83.40
2023-01-31T20:25:52.313Z,83.40
2023-01-31T20:28:58.124Z,83.40
2023-01-31T20:32:07.040Z,83.30
2023-01-31T20:35:11.042Z,83.30
2023-01-31T20:38:17.489Z,83.30
2023-01-31T20:41:21.809Z,83.30
2023-01-31T20:44:29.607Z,83.30
2023-01-31T20:47:33.463Z,83.20
2023-01-31T20:50:39.376Z,83.20
2023-01-31T20:53:43.012Z,83.20
2023-01-31T20:56:48.860Z,83.20
2023-01-31T20:59:54.422Z,83.30
2023-01-31T21:03:00.271Z,83.20
2023-01-31T21:06:04.442Z,83.30
2023-01-31T21:09:10.907Z,83.30
2023-01-31T21:12:14.764Z,83.20
2023-01-31T21:15:22.589Z,83.20
2023-01-31T21:18:28.299Z,83.10
2023-01-31T21:21:34.187Z,83.20
2023-01-31T21:24:38.072Z,83.20
2023-01-31T21:27:44.094Z,83.10
2023-01-31T21:30:59.147Z,83.10
2023-01-31T21:34:06.028Z,83.10
2023-01-31T21:37:09.836Z,83.10
2023-01-31T21:40:16.532Z,83.70
2023-01-31T21:43:20.363Z,83.00
2023-01-31T21:46:28.231Z,83.00
2023-01-31T21:49:32.029Z,83.00
2023-01-31T21:52:37.919Z,83.00
2023-01-31T21:55:41.481Z,83.00
2023-01-31T21:58:47.714Z,83.00
2023-01-31T22:01:53.733Z,83.00
2023-01-31T22:04:59.604Z,83.00
2023-01-31T22:08:03.216Z,83.10
2023-01-31T22:11:11.728Z,83.00
2023-01-31T22:14:17.687Z,83.00
2023-01-31T22:17:25.520Z,83.00
2023-01-31T22:20:29.345Z,83.00
2023-01-31T22:23:36.220Z,83.00
2023-01-31T22:26:42.116Z,83.00
2023-01-31T22:29:48.016Z,83.00
2023-01-31T22:32:53.519Z,83.00
2023-01-31T22:35:59.563Z,83.00
2023-01-31T22:39:03.158Z,83.00
2023-01-31T22:42:09.004Z,82.90
2023-01-31T22:45:12.890Z,83.50
2023-01-31T22:48:21.867Z,82.90
2023-01-31T22:51:27.301Z,82.90
2023-01-31T22:54:33.167Z,82.90
2023-01-31T22:57:36.809Z,83.00
2023-01-31T23:00:43.174Z,82.90
2023-01-31T23:03:49.746Z,82.90
2023-01-31T23:06:55.627Z,82.90
2023-01-31T23:09:59.208Z,83.00
2023-01-31T23:13:05.589Z,83.00
2023-01-31T23:16:16.006Z,83.00
2023-01-31T23:19:23.854Z,83.00
2023-01-31T23:22:27.694Z,83.00
2023-01-31T23:25:33.544Z,82.90
2023-01-31T23:28:37.213Z,83.00
2023-01-31T23:31:43.210Z,83.00
2023-01-31T23:34:49.017Z,83.00
2023-01-31T23:37:55.058Z,83.10
2023-01-31T23:40:58.919Z,83.00
2023-01-31T23:44:05.151Z,83.00
2023-01-31T23:47:08.978Z,83.00
2023-01-31T23:50:17.245Z,83.00
2023-01-31T23:53:21.018Z,83.00
2023-01-31T23:56:27.593Z,83.00
2023-01-31T23:59:33.118Z,83.00
